createdAt,value
2018-12-18T00:00:14.364Z,52.61
2018-12-18T00:02:40.327Z,53.11
2018-12-18T00:05:06.274Z,52.55
2018-12-18T00:07:32.248Z,52.95
2018-12-18T00:09:58.201Z,54.05
2018-12-18T00:12:24.208Z,54.25
2018-12-18T00:14:50.156Z,53.08
2018-12-18T00:17:16.107Z,52.69
2018-12-18T00:19:42.072Z,53.22
2018-12-18T00:22:08.063Z,52.92
2018-12-18T00:24:34.066Z,52.65
2018-12-18T00:27:00.048Z,53.67
2018-12-18T00:29:26.040Z,53.49
2018-12-18T00:31:52.001Z,53.68
2018-12-18T00:34:17.971Z,52.47
2018-12-18T00:36:43.949Z,52.60
2018-12-18T00:39:09.931Z,52.80
2018-12-18T00:41:35.879Z,52.35
2018-12-18T00:44:01.848Z,52.28
2018-12-18T00:46:27.801Z,51.95
2018-12-18T00:48:53.783Z,52.38
2018-12-18T00:51:19.761Z,52.61
2018-12-18T00:53:45.752Z,53.02
2018-12-18T00:56:11.726Z,53.02
2018-12-18T00:58:37.680Z,51.79
2018-12-18T01:01:03.900Z,51.89
2018-12-18T01:03:29.863Z,51.85
2018-12-18T01:05:55.844Z,51.90
2018-12-18T01:08:21.802Z,52.11
2018-12-18T01:10:47.783Z,51.83
2018-12-18T01:18:21.296Z,51.34
2018-12-18T01:20:47.279Z,51.13
2018-12-18T01:23:13.231Z,51.57
2018-12-18T01:25:39.192Z,52.78
2018-12-18T01:28:05.137Z,52.74
2018-12-18T01:30:31.106Z,53.25
2018-12-18T01:32:57.055Z,52.96
2018-12-18T01:35:23.012Z,52.63
2018-12-18T01:37:49.004Z,51.79
2018-12-18T01:40:14.969Z,52.86
2018-12-18T01:42:40.953Z,53.18
2018-12-18T01:45:06.922Z,51.75
2018-12-18T01:47:32.886Z,51.36
2018-12-18T01:49:58.863Z,53.10
2018-12-18T01:52:24.829Z,52.85
2018-12-18T01:54:50.795Z,51.70
2018-12-18T01:57:16.754Z,52.17
2018-12-18T01:59:42.692Z,52.12
2018-12-18T02:02:08.689Z,52.60
2018-12-18T02:04:34.635Z,52.81
2018-12-18T02:07:00.594Z,52.63
2018-12-18T02:09:26.555Z,52.13
2018-12-18T02:11:52.534Z,51.94
2018-12-18T02:14:18.514Z,51.90
2018-12-18T02:16:44.480Z,52.45
2018-12-18T02:19:10.439Z,51.46
2018-12-18T02:21:36.761Z,51.79
2018-12-18T02:24:02.737Z,52.40
2018-12-18T02:26:28.714Z,50.91
2018-12-18T02:28:54.688Z,50.99
2018-12-18T02:31:20.648Z,51.15
2018-12-18T02:33:46.608Z,51.71
2018-12-18T02:36:12.688Z,50.78
2018-12-18T02:38:38.660Z,50.47
2018-12-18T02:41:04.646Z,50.52
2018-12-18T02:43:30.606Z,50.53
2018-12-18T02:45:56.553Z,50.40
2018-12-18T02:48:22.522Z,49.75
2018-12-18T02:50:48.474Z,50.33
2018-12-18T02:53:14.460Z,50.04
2018-12-18T02:55:40.424Z,50.06
2018-12-18T02:58:06.403Z,49.92
2018-12-18T03:00:32.400Z,49.50
2018-12-18T03:02:58.347Z,50.34
2018-12-18T03:05:24.304Z,50.01
2018-12-18T03:07:50.256Z,49.93
2018-12-18T03:10:16.217Z,50.39
2018-12-18T03:12:42.209Z,49.71
2018-12-18T03:15:08.156Z,49.58
2018-12-18T03:17:34.184Z,49.75
2018-12-18T03:20:00.157Z,50.67
2018-12-18T03:22:26.142Z,50.39
2018-12-18T03:24:52.093Z,49.61
2018-12-18T03:27:18.129Z,50.05
2018-12-18T03:29:44.131Z,49.69
2018-12-18T03:32:10.073Z,49.42
2018-12-18T03:34:36.071Z,50.10
2018-12-18T03:37:02.099Z,49.87
2018-12-18T03:39:28.057Z,50.63
2018-12-18T03:41:54.047Z,49.97
2018-12-18T03:44:20.008Z,49.98
2018-12-18T03:46:45.979Z,50.68
2018-12-18T03:49:11.929Z,50.41
2018-12-18T03:51:37.905Z,50.28
2018-12-18T03:54:03.873Z,49.88
2018-12-18T03:56:29.836Z,49.94
2018-12-18T03:58:55.796Z,49.77
2018-12-18T04:01:21.771Z,50.23
2018-12-18T04:03:47.747Z,50.17
2018-12-18T04:06:13.717Z,50.42
2018-12-18T04:08:39.674Z,50.52
2018-12-18T04:11:05.641Z,50.87
2018-12-18T04:13:31.609Z,50.67
2018-12-18T04:15:57.589Z,50.41
2018-12-18T04:18:23.544Z,50.67
2018-12-18T04:20:49.550Z,50.73
2018-12-18T04:23:15.522Z,50.71
2018-12-18T04:25:41.508Z,50.15
2018-12-18T04:28:11.802Z,50.23
2018-12-18T04:30:42.008Z,50.52
2018-12-18T04:33:07.974Z,50.71
2018-12-18T04:35:33.951Z,50.73
2018-12-18T04:37:59.933Z,50.66
2018-12-18T04:40:25.909Z,50.51
2018-12-18T04:42:51.888Z,50.62
2018-12-18T04:45:17.841Z,50.12
2018-12-18T04:47:44.892Z,50.59
2018-12-18T04:50:10.847Z,50.52
2018-12-18T04:52:36.816Z,50.65
2018-12-18T04:55:02.775Z,50.17
2018-12-18T04:57:28.766Z,50.32
2018-12-18T04:59:55.996Z,50.91
2018-12-18T05:02:21.988Z,50.39
2018-12-18T05:04:50.548Z,51.69
2018-12-18T05:07:15.956Z,51.83
2018-12-18T05:09:41.916Z,51.54
2018-12-18T05:12:07.881Z,52.15
2018-12-18T05:14:33.913Z,51.29
2018-12-18T05:16:59.951Z,51.61
2018-12-18T05:19:25.995Z,51.82
2018-12-18T05:21:51.973Z,52.08
2018-12-18T05:24:18.023Z,51.90
2018-12-18T05:26:44.019Z,51.96
2018-12-18T05:29:09.960Z,52.54
2018-12-18T05:31:35.936Z,52.17
2018-12-18T05:34:01.880Z,52.36
2018-12-18T05:36:27.883Z,51.93
2018-12-18T05:38:53.865Z,52.20
2018-12-18T05:41:19.820Z,52.57
2018-12-18T05:43:45.759Z,52.31
2018-12-18T05:46:11.804Z,53.24
2018-12-18T05:48:37.783Z,51.90
2018-12-18T05:51:04.329Z,52.22
2018-12-18T05:53:32.053Z,52.45
2018-12-18T05:55:58.267Z,52.05
2018-12-18T05:58:24.235Z,53.48
2018-12-18T06:00:50.200Z,52.95
2018-12-18T06:03:16.146Z,53.55
2018-12-18T06:05:42.096Z,53.35
2018-12-18T06:08:09.122Z,52.22
2018-12-18T06:10:35.066Z,53.44
2018-12-18T06:13:01.185Z,52.67
2018-12-18T06:15:27.425Z,52.78
2018-12-18T06:17:53.487Z,52.36
2018-12-18T06:20:19.635Z,51.79
2018-12-18T06:22:45.760Z,50.63
2018-12-18T06:25:11.704Z,50.20
2018-12-18T06:27:37.682Z,50.32
2018-12-18T06:30:03.632Z,49.76
2018-12-18T06:32:29.622Z,49.71
2018-12-18T06:34:55.583Z,49.44
2018-12-18T06:37:21.558Z,48.64
2018-12-18T06:39:47.563Z,49.27
2018-12-18T06:42:13.553Z,49.51
2018-12-18T06:44:39.546Z,49.36
2018-12-18T06:47:05.494Z,49.68
2018-12-18T06:49:31.459Z,49.78
2018-12-18T06:51:57.422Z,48.95
2018-12-18T06:54:23.387Z,49.33
2018-12-18T06:56:49.435Z,48.89
2018-12-18T06:59:15.391Z,49.17
2018-12-18T07:01:41.340Z,49.14
2018-12-18T07:04:07.296Z,48.96
2018-12-18T07:06:33.263Z,49.17
2018-12-18T07:08:59.304Z,48.81
2018-12-18T07:11:25.275Z,49.13
2018-12-18T07:13:51.231Z,49.52
2018-12-18T07:16:17.182Z,48.82
2018-12-18T07:18:43.163Z,48.78
2018-12-18T07:21:09.143Z,48.73
2018-12-18T07:23:35.114Z,48.68
2018-12-18T07:26:01.075Z,48.82
2018-12-18T07:28:27.061Z,48.43
2018-12-18T07:30:53.017Z,48.42
2018-12-18T07:33:18.999Z,48.15
2018-12-18T07:35:45.003Z,48.83
2018-12-18T07:38:10.985Z,49.00
2018-12-18T07:40:36.933Z,48.57
2018-12-18T07:43:02.920Z,48.87
2018-12-18T07:45:28.871Z,48.20
2018-12-18T07:47:54.841Z,48.46
2018-12-18T07:50:20.801Z,48.44
2018-12-18T07:52:46.788Z,48.43
2018-12-18T07:55:12.745Z,48.05
2018-12-18T07:57:38.724Z,48.52
2018-12-18T08:00:04.697Z,47.79
2018-12-18T08:02:30.658Z,48.37
2018-12-18T08:04:56.623Z,48.15
2018-12-18T08:07:22.602Z,48.36
2018-12-18T08:09:48.680Z,47.39
2018-12-18T08:12:14.642Z,47.62
2018-12-18T08:14:40.579Z,47.73
2018-12-18T08:17:06.531Z,47.58
2018-12-18T08:19:32.579Z,47.56
2018-12-18T08:21:58.539Z,48.33
2018-12-18T08:24:24.596Z,48.73
2018-12-18T08:26:50.606Z,47.89
2018-12-18T08:29:16.603Z,48.41
2018-12-18T08:31:42.587Z,47.89
2018-12-18T08:34:08.554Z,47.89
2018-12-18T08:36:34.507Z,48.74
2018-12-18T08:39:01.570Z,48.51
2018-12-18T08:41:27.572Z,48.26
2018-12-18T08:43:53.556Z,47.74
2018-12-18T08:46:19.516Z,47.61
2018-12-18T08:48:45.540Z,47.94
2018-12-18T08:51:11.492Z,48.14
2018-12-18T08:53:37.474Z,47.80
2018-12-18T08:56:03.455Z,47.77
2018-12-18T08:58:29.433Z,48.32
2018-12-18T09:00:55.405Z,47.95
2018-12-18T09:03:21.409Z,47.41
2018-12-18T09:05:47.396Z,47.86
2018-12-18T09:08:13.340Z,47.50
2018-12-18T09:10:40.013Z,47.44
2018-12-18T09:13:06.179Z,47.34
2018-12-18T09:15:32.156Z,48.47
2018-12-18T09:17:58.293Z,48.05
2018-12-18T09:20:24.267Z,48.84
2018-12-18T09:22:50.244Z,48.22
2018-12-18T09:25:16.203Z,48.15
2018-12-18T09:27:42.199Z,48.27
2018-12-18T09:30:08.208Z,48.10
2018-12-18T09:32:34.152Z,47.84
2018-12-18T09:35:00.108Z,47.63
2018-12-18T09:37:26.075Z,47.65
2018-12-18T09:39:52.040Z,47.37
2018-12-18T09:42:17.988Z,47.05
2018-12-18T09:44:43.987Z,46.96
2018-12-18T09:47:09.960Z,46.96
2018-12-18T09:49:35.987Z,47.16
2018-12-18T09:52:01.980Z,47.47
2018-12-18T09:54:28.089Z,47.73
2018-12-18T09:56:54.064Z,47.58
2018-12-18T09:59:20.043Z,46.88
2018-12-18T10:01:46.009Z,46.37
2018-12-18T10:04:12.239Z,46.54
2018-12-18T10:06:38.181Z,47.33
2018-12-18T10:09:09.623Z,46.60
2018-12-18T10:11:32.111Z,46.71
2018-12-18T10:13:58.069Z,46.29
2018-12-18T10:16:24.022Z,45.94
2018-12-18T10:18:50.010Z,46.21
2018-12-18T10:21:16.081Z,46.96
2018-12-18T10:23:42.177Z,47.10
2018-12-18T10:26:08.178Z,46.89
2018-12-18T10:28:34.148Z,46.40
2018-12-18T10:31:00.090Z,46.83
2018-12-18T10:33:26.165Z,46.35
2018-12-18T10:35:52.170Z,46.31
2018-12-18T10:38:18.204Z,45.99
2018-12-18T10:40:44.153Z,45.48
2018-12-18T10:43:10.117Z,45.73
2018-12-18T10:45:36.093Z,45.35
2018-12-18T10:48:02.099Z,45.57
2018-12-18T10:50:28.041Z,45.46
2018-12-18T10:52:53.985Z,45.77
2018-12-18T10:55:19.951Z,45.37
2018-12-18T10:57:45.958Z,45.67
2018-12-18T11:00:11.944Z,45.07
2018-12-18T11:02:37.950Z,45.49
2018-12-18T11:05:04.016Z,45.32
2018-12-18T11:07:29.990Z,45.28
2018-12-18T11:09:55.979Z,44.79
2018-12-18T11:12:21.977Z,45.47
2018-12-18T11:14:47.935Z,45.14
2018-12-18T11:17:13.881Z,45.75
2018-12-18T11:19:39.821Z,45.28
2018-12-18T11:22:05.784Z,43.83
2018-12-18T11:24:31.761Z,44.47
2018-12-18T11:26:57.726Z,44.97
2018-12-18T11:29:23.702Z,45.65
2018-12-18T11:31:49.688Z,45.08
2018-12-18T11:34:15.710Z,45.65
2018-12-18T11:36:41.649Z,45.99
2018-12-18T11:39:07.589Z,45.52
2018-12-18T11:41:34.615Z,44.91
2018-12-18T11:44:00.600Z,45.33
2018-12-18T11:46:26.591Z,45.63
2018-12-18T11:48:52.536Z,45.11
2018-12-18T11:51:18.496Z,44.83
2018-12-18T11:53:44.517Z,45.38
2018-12-18T11:56:10.691Z,45.24
2018-12-18T11:58:36.788Z,44.99
2018-12-18T12:01:02.738Z,44.84
2018-12-18T12:03:28.712Z,45.23
2018-12-18T12:05:56.413Z,44.76
2018-12-18T12:08:22.383Z,45.09
2018-12-18T12:10:48.357Z,45.47
2018-12-18T12:13:14.328Z,45.21
2018-12-18T12:15:40.416Z,45.07
2018-12-18T12:18:06.390Z,45.12
2018-12-18T12:20:32.416Z,45.41
2018-12-18T12:22:58.368Z,45.03
2018-12-18T12:25:24.333Z,44.61
2018-12-18T12:27:50.273Z,45.11
2018-12-18T12:30:16.235Z,46.06
2018-12-18T12:32:42.176Z,44.97
2018-12-18T12:35:08.135Z,44.83
2018-12-18T12:37:34.103Z,45.28
2018-12-18T12:40:00.073Z,45.06
2018-12-18T12:42:26.071Z,46.39
2018-12-18T12:44:52.031Z,45.68
2018-12-18T12:47:17.977Z,45.64
2018-12-18T12:49:43.932Z,44.99
2018-12-18T12:52:09.920Z,45.02
2018-12-18T12:54:35.870Z,45.28
2018-12-18T12:57:01.831Z,45.08
2018-12-18T12:59:27.807Z,44.98
2018-12-18T13:01:53.794Z,45.47
2018-12-18T13:04:19.776Z,45.05
2018-12-18T13:06:45.745Z,45.48
2018-12-18T13:09:11.690Z,45.08
2018-12-18T13:11:37.653Z,44.57
2018-12-18T13:14:03.608Z,45.11
2018-12-18T13:16:29.582Z,44.47
2018-12-18T13:18:55.557Z,45.62
2018-12-18T13:21:21.513Z,45.53
2018-12-18T13:23:50.072Z,45.59
2018-12-18T13:26:16.050Z,44.63
2018-12-18T13:28:42.035Z,45.22
2018-12-18T13:31:08.047Z,44.52
2018-12-18T13:33:33.999Z,46.31
2018-12-18T13:35:59.962Z,45.79
2018-12-18T13:38:25.952Z,46.04
2018-12-18T13:40:51.889Z,46.25
2018-12-18T13:43:17.909Z,46.17
2018-12-18T13:45:43.905Z,45.73
2018-12-18T13:48:09.883Z,46.65
2018-12-18T13:50:35.843Z,46.55
2018-12-18T13:53:01.804Z,45.43
2018-12-18T13:55:27.991Z,46.12
2018-12-18T13:57:53.954Z,45.21
2018-12-18T14:00:19.912Z,45.13
2018-12-18T14:02:45.903Z,44.93
2018-12-18T14:05:11.918Z,45.03
2018-12-18T14:07:37.895Z,45.13
2018-12-18T14:10:03.895Z,44.86
2018-12-18T14:12:29.872Z,44.01
2018-12-18T14:14:55.832Z,43.73
2018-12-18T14:17:22.038Z,44.68
2018-12-18T14:19:47.988Z,44.97
2018-12-18T14:22:14.067Z,44.53
2018-12-18T14:24:40.129Z,45.46
2018-12-18T14:27:06.068Z,47.58
2018-12-18T14:29:32.050Z,48.55
2018-12-18T14:31:58.142Z,47.30
2018-12-18T14:34:24.134Z,49.99
2018-12-18T14:36:56.062Z,49.37
2018-12-18T14:39:19.366Z,48.54
2018-12-18T14:41:45.397Z,48.09
2018-12-18T14:44:11.358Z,51.32
2018-12-18T14:46:37.393Z,50.71
2018-12-18T14:49:03.379Z,49.19
2018-12-18T14:51:29.321Z,48.74
2018-12-18T14:53:55.314Z,48.75
2018-12-18T14:56:21.302Z,49.92
2018-12-18T14:58:47.502Z,48.80
2018-12-18T15:01:13.542Z,51.16
2018-12-18T15:03:39.523Z,49.81
2018-12-18T15:06:05.563Z,50.15
2018-12-18T15:08:31.580Z,49.29
2018-12-18T15:10:57.574Z,50.56
2018-12-18T15:13:23.572Z,49.35
2018-12-18T15:15:49.528Z,50.57
2018-12-18T15:18:15.501Z,51.92
2018-12-18T15:20:41.438Z,52.81
2018-12-18T15:23:07.436Z,51.83
2018-12-18T15:25:33.399Z,53.44
2018-12-18T15:27:59.393Z,55.02
2018-12-18T15:30:26.078Z,54.69
2018-12-18T15:32:52.280Z,51.91
2018-12-18T15:35:18.220Z,54.68
2018-12-18T15:37:44.188Z,55.62
2018-12-18T15:40:10.132Z,53.73
2018-12-18T15:42:36.180Z,54.43
2018-12-18T15:45:02.981Z,56.11
2018-12-18T15:47:28.945Z,54.68
2018-12-18T15:49:54.909Z,52.17
2018-12-18T15:52:20.876Z,52.53
2018-12-18T15:54:46.860Z,50.83
2018-12-18T15:57:12.832Z,52.47
2018-12-18T15:59:39.480Z,52.78
2018-12-18T16:02:05.440Z,51.75
2018-12-18T16:04:31.439Z,52.01
2018-12-18T16:06:57.381Z,51.87
2018-12-18T16:09:23.357Z,52.54
2018-12-18T16:11:49.878Z,51.28
2018-12-18T16:14:17.012Z,53.83
2018-12-18T16:16:42.957Z,54.25
2018-12-18T16:19:10.172Z,53.42
2018-12-18T16:21:37.061Z,54.50
2018-12-18T16:24:03.033Z,52.17
2018-12-18T16:26:29.086Z,52.22
2018-12-18T16:28:55.075Z,53.23
2018-12-18T16:31:21.154Z,52.12
2018-12-18T16:33:47.148Z,53.07
2018-12-18T16:36:13.154Z,53.29
2018-12-18T16:38:40.065Z,54.35
2018-12-18T16:41:06.035Z,54.43
2018-12-18T16:43:31.998Z,54.54
2018-12-18T16:45:57.965Z,55.17
2018-12-18T16:48:23.923Z,54.84
2018-12-18T16:50:49.954Z,55.46
2018-12-18T16:53:16.187Z,54.44
2018-12-18T16:55:42.274Z,52.19
2018-12-18T16:58:08.223Z,52.00
2018-12-18T17:00:34.177Z,52.64
2018-12-18T17:03:00.143Z,52.67
2018-12-18T17:05:26.123Z,52.14
2018-12-18T17:07:52.813Z,52.45
2018-12-18T17:10:18.818Z,52.98
2018-12-18T17:12:44.764Z,53.35
2018-12-18T17:15:11.428Z,54.28
2018-12-18T17:17:37.366Z,53.30
2018-12-18T17:20:03.324Z,54.13
2018-12-18T17:22:30.082Z,55.36
2018-12-18T17:24:56.052Z,55.65
2018-12-18T17:27:22.023Z,55.55
2018-12-18T17:29:48.029Z,55.87
2018-12-18T17:32:13.984Z,55.05
2018-12-18T17:34:39.926Z,55.11
2018-12-18T17:37:05.883Z,55.18
2018-12-18T17:39:31.827Z,54.81
2018-12-18T17:41:57.771Z,55.90
2018-12-18T17:44:23.708Z,56.47
2018-12-18T17:46:49.688Z,56.03
2018-12-18T17:49:15.637Z,56.77
2018-12-18T17:51:41.615Z,56.46
2018-12-18T17:54:07.572Z,56.78
2018-12-18T17:56:34.639Z,55.37
2018-12-18T17:59:00.595Z,54.13
2018-12-18T18:01:26.555Z,56.00
2018-12-18T18:03:53.124Z,56.06
2018-12-18T18:06:19.077Z,57.22
2018-12-18T18:08:45.040Z,57.06
2018-12-18T18:11:12.084Z,56.36
2018-12-18T18:13:38.045Z,56.31
2018-12-18T18:16:04.004Z,56.19
2018-12-18T18:18:30.089Z,55.07
2018-12-18T18:20:56.099Z,55.37
2018-12-18T18:23:22.408Z,55.07
2018-12-18T18:25:50.337Z,54.26
2018-12-18T18:28:16.409Z,53.53
2018-12-18T18:30:43.456Z,54.05
2018-12-18T18:33:11.525Z,53.08
2018-12-18T18:35:37.548Z,52.09
2018-12-18T18:38:03.529Z,51.97
2018-12-18T18:40:29.512Z,52.31
2018-12-18T18:42:55.530Z,52.70
2018-12-18T18:45:21.466Z,51.83
2018-12-18T18:47:48.150Z,51.47
2018-12-18T18:50:14.116Z,52.43
2018-12-18T18:55:16.597Z,51.91
2018-12-18T18:57:42.592Z,54.20
2018-12-18T19:00:09.578Z,53.10
2018-12-18T19:02:35.534Z,54.63
2018-12-18T19:05:01.566Z,55.67
2018-12-18T19:07:27.824Z,54.59
2018-12-18T19:09:53.914Z,56.29
2018-12-18T19:12:19.959Z,54.61
2018-12-18T19:14:45.949Z,53.42
2018-12-18T19:17:11.968Z,53.82
2018-12-18T19:19:37.929Z,54.66
2018-12-18T19:22:03.950Z,54.04
2018-12-18T19:24:29.954Z,54.49
2018-12-18T19:27:01.153Z,53.79
2018-12-18T19:29:27.173Z,52.71
2018-12-18T19:31:53.136Z,53.03
2018-12-18T19:34:21.152Z,53.54
2018-12-18T19:36:47.333Z,53.94
2018-12-18T19:39:13.586Z,54.66
2018-12-18T19:41:39.544Z,53.82
2018-12-18T19:44:05.552Z,53.17
2018-12-18T19:46:31.553Z,52.75
2018-12-18T19:48:57.553Z,52.98
2018-12-18T19:51:23.520Z,52.23
2018-12-18T19:53:49.498Z,53.44
2018-12-18T19:56:15.517Z,53.96
2018-12-18T19:58:41.513Z,52.60
2018-12-18T20:01:07.478Z,53.64
2018-12-18T20:03:33.495Z,53.47
2018-12-18T20:05:59.603Z,52.03
2018-12-18T20:08:25.608Z,53.50
2018-12-18T20:10:51.668Z,53.23
2018-12-18T20:13:17.689Z,52.44
2018-12-18T20:15:43.658Z,54.23
2018-12-18T20:18:09.636Z,54.20
2018-12-18T20:25:38.778Z,54.17
2018-12-18T20:28:04.783Z,52.95
2018-12-18T20:30:30.757Z,53.10
2018-12-18T20:32:56.725Z,53.55
2018-12-18T20:35:22.675Z,54.80
2018-12-18T20:37:48.761Z,55.51
2018-12-18T20:40:14.752Z,55.38
2018-12-18T20:42:40.859Z,56.41
2018-12-18T20:45:06.821Z,56.98
2018-12-18T20:47:32.937Z,56.30
2018-12-18T20:52:30.956Z,57.20
2018-12-18T20:54:56.924Z,56.08
2018-12-18T20:57:22.881Z,55.52
2018-12-18T20:59:48.919Z,55.92
2018-12-18T21:02:14.895Z,56.33
2018-12-18T21:04:40.884Z,56.33
2018-12-18T21:07:06.922Z,54.27
2018-12-18T21:12:09.191Z,54.13
2018-12-18T21:14:35.168Z,53.29
2018-12-18T21:17:01.176Z,52.80
2018-12-18T21:19:27.320Z,54.49
2018-12-18T21:21:53.311Z,55.07
2018-12-18T21:24:19.271Z,54.13
2018-12-18T21:26:45.292Z,53.76
2018-12-18T21:29:11.278Z,54.92
2018-12-18T21:31:37.256Z,56.24
2018-12-18T21:34:03.343Z,56.21
2018-12-18T21:36:31.389Z,56.08
2018-12-18T21:38:57.341Z,56.97
2018-12-18T21:41:23.381Z,56.94
2018-12-18T21:43:50.596Z,56.85
2018-12-18T21:46:16.708Z,56.07
2018-12-18T21:48:42.761Z,56.41
2018-12-18T21:51:08.809Z,55.85
2018-12-18T21:53:34.985Z,56.18
2018-12-18T21:56:00.976Z,55.88
2018-12-18T21:58:26.949Z,56.21
2018-12-18T22:00:55.034Z,55.82
2018-12-18T22:05:56.355Z,52.96
2018-12-18T22:08:22.331Z,52.50
2018-12-18T22:10:48.293Z,52.37
2018-12-18T22:13:14.261Z,53.08
2018-12-18T22:15:40.237Z,52.79
2018-12-18T22:18:06.240Z,52.96
2018-12-18T22:20:32.271Z,51.58
2018-12-18T22:22:58.277Z,51.90
2018-12-18T22:25:24.323Z,52.20
2018-12-18T22:27:50.349Z,52.61
2018-12-18T22:30:16.319Z,52.21
2018-12-18T22:32:42.320Z,52.19
2018-12-18T22:35:08.295Z,51.12
2018-12-18T22:37:34.262Z,51.36
2018-12-18T22:40:00.243Z,54.79
2018-12-18T22:42:26.227Z,54.68
2018-12-18T22:44:52.209Z,52.38
2018-12-18T22:47:18.157Z,51.10
2018-12-18T22:49:44.179Z,52.82
2018-12-18T22:52:10.144Z,51.86
2018-12-18T22:54:36.131Z,52.57
2018-12-18T22:57:02.104Z,52.06
2018-12-18T22:59:28.076Z,52.55
2018-12-18T23:01:54.092Z,50.80
2018-12-18T23:04:20.041Z,51.97
2018-12-18T23:06:46.025Z,51.45
2018-12-18T23:09:11.991Z,51.31
2018-12-18T23:11:37.982Z,52.66
2018-12-18T23:14:03.958Z,51.90
2018-12-18T23:16:29.971Z,53.35
2018-12-18T23:18:55.943Z,53.91
2018-12-18T23:21:21.927Z,52.34
2018-12-18T23:23:47.902Z,54.78
2018-12-18T23:26:13.888Z,55.09
2018-12-18T23:28:39.849Z,54.56
2018-12-18T23:31:05.903Z,55.02
2018-12-18T23:33:31.892Z,57.50
2018-12-18T23:35:57.941Z,55.49
2018-12-18T23:38:23.964Z,55.83
2018-12-18T23:40:49.917Z,55.72
2018-12-18T23:43:15.905Z,54.03
2018-12-18T23:45:41.861Z,52.16
2018-12-18T23:48:07.860Z,53.80
2018-12-18T23:50:33.828Z,53.55
2018-12-18T23:52:59.819Z,54.02
2018-12-18T23:55:25.876Z,55.53
2018-12-18T23:57:52.135Z,53.63
